Terminal Aerodrome Forecast
Issued by NWS

Home | Current Version | Previous Version | Text Only | Print | Product List | Glossary On
Versions: 1 2 3 4 5 6 7 8 9 10 11 12 13 14 15 16 17 18 19 20 21 22 23 24 25 26 27 28 29
000
FTUS41 KOKX 130534
TAFGON
TAF
KGON 130534Z 1306/1406 30019G30KT P6SM FEW050
     FM131300 28022G34KT P6SM BKN050
     FM132100 28020G29KT P6SM SCT040
     FM140100 27015G25KT P6SM SCT070 BKN120
     FM140400 27014G22KT P6SM BKN050 BKN100=

USA.gov is the U.S. government's official web portal to all federal, state and local government web resources and services.